sensor_id;sensor_type;location;lat;lon;timestamp;P1;durP1;ratioP1;P2;durP2;ratioP2
57822;SDS011;43650;48.064;20.624;2023-07-13T00:00:09;9.30;;;4.68;;
57822;SDS011;43650;48.064;20.624;2023-07-13T00:01:15;7.75;;;4.78;;
57822;SDS011;43650;48.064;20.624;2023-07-13T00:02:17;6.68;;;4.22;;
57822;SDS011;43650;48.064;20.624;2023-07-13T00:03:17;9.70;;;4.00;;
57822;SDS011;43650;48.064;20.624;2023-07-13T00:04:19;6.23;;;4.00;;
57822;SDS011;43650;48.064;20.624;2023-07-13T00:05:23;8.27;;;4.72;;
57822;SDS011;43650;48.064;20.624;2023-07-13T00:06:24;7.55;;;4.12;;
57822;SDS011;43650;48.064;20.624;2023-07-13T00:07:24;5.73;;;4.23;;
57822;SDS011;43650;48.064;20.624;2023-07-13T00:08:25;7.67;;;4.03;;
57822;SDS011;43650;48.064;20.624;2023-07-13T00:09:25;4.40;;;3.67;;
57822;SDS011;43650;48.064;20.624;2023-07-13T00:10:26;5.78;;;3.62;;
57822;SDS011;43650;48.064;20.624;2023-07-13T00:11:27;7.72;;;4.05;;
57822;SDS011;43650;48.064;20.624;2023-07-13T00:12:31;5.20;;;4.03;;
57822;SDS011;43650;48.064;20.624;2023-07-13T00:13:33;7.80;;;4.00;;
57822;SDS011;43650;48.064;20.624;2023-07-13T00:14:33;5.77;;;4.50;;
57822;SDS011;43650;48.064;20.624;2023-07-13T00:15:34;7.95;;;4.50;;
57822;SDS011;43650;48.064;20.624;2023-07-13T00:16:36;5.87;;;4.25;;
57822;SDS011;43650;48.064;20.624;2023-07-13T00:17:37;11.65;;;4.50;;
57822;SDS011;43650;48.064;20.624;2023-07-13T00:19:39;6.30;;;4.28;;
57822;SDS011;43650;48.064;20.624;2023-07-13T00:20:39;6.53;;;4.00;;
57822;SDS011;43650;48.064;20.624;2023-07-13T00:21:41;6.90;;;5.03;;
57822;SDS011;43650;48.064;20.624;2023-07-13T00:22:42;8.15;;;4.30;;
57822;SDS011;43650;48.064;20.624;2023-07-13T00:23:42;7.77;;;4.00;;
57822;SDS011;43650;48.064;20.624;2023-07-13T00:24:43;5.87;;;4.17;;
57822;SDS011;43650;48.064;20.624;2023-07-13T00:25:44;5.80;;;4.78;;
57822;SDS011;43650;48.064;20.624;2023-07-13T00:26:44;6.13;;;4.13;;
57822;SDS011;43650;48.064;20.624;2023-07-13T00:27:46;8.45;;;4.72;;
57822;SDS011;43650;48.064;20.624;2023-07-13T00:28:48;5.85;;;4.03;;
57822;SDS011;43650;48.064;20.624;2023-07-13T00:29:49;6.10;;;4.55;;
57822;SDS011;43650;48.064;20.624;2023-07-13T00:30:49;7.20;;;4.73;;
57822;SDS011;43650;48.064;20.624;2023-07-13T00:31:50;6.23;;;4.67;;
57822;SDS011;43650;48.064;20.624;2023-07-13T00:32:50;6.57;;;4.07;;
57822;SDS011;43650;48.064;20.624;2023-07-13T00:33:51;6.97;;;4.30;;
57822;SDS011;43650;48.064;20.624;2023-07-13T00:34:51;9.00;;;4.70;;
57822;SDS011;43650;48.064;20.624;2023-07-13T00:35:53;5.85;;;4.20;;
57822;SDS011;43650;48.064;20.624;2023-07-13T00:36:54;6.75;;;4.57;;
57822;SDS011;43650;48.064;20.624;2023-07-13T00:37:54;5.73;;;4.13;;
57822;SDS011;43650;48.064;20.624;2023-07-13T00:38:56;7.47;;;5.28;;
57822;SDS011;43650;48.064;20.624;2023-07-13T00:39:56;6.00;;;4.50;;
57822;SDS011;43650;48.064;20.624;2023-07-13T00:40:57;8.27;;;4.97;;
57822;SDS011;43650;48.064;20.624;2023-07-13T00:41:58;7.12;;;5.15;;
57822;SDS011;43650;48.064;20.624;2023-07-13T00:42:59;9.18;;;4.82;;
57822;SDS011;43650;48.064;20.624;2023-07-13T00:43:59;8.10;;;5.07;;
57822;SDS011;43650;48.064;20.624;2023-07-13T00:46:47;7.12;;;5.03;;
57822;SDS011;43650;48.064;20.624;2023-07-13T00:47:30;9.38;;;4.65;;
57822;SDS011;43650;48.064;20.624;2023-07-13T00:48:32;6.90;;;4.53;;
57822;SDS011;43650;48.064;20.624;2023-07-13T00:49:33;9.25;;;5.70;;
57822;SDS011;43650;48.064;20.624;2023-07-13T00:50:35;8.73;;;4.97;;
57822;SDS011;43650;48.064;20.624;2023-07-13T00:51:37;10.30;;;5.40;;
57822;SDS011;43650;48.064;20.624;2023-07-13T00:52:42;6.82;;;4.78;;
57822;SDS011;43650;48.064;20.624;2023-07-13T00:53:44;7.45;;;4.65;;
57822;SDS011;43650;48.064;20.624;2023-07-13T00:54:45;13.97;;;5.70;;
57822;SDS011;43650;48.064;20.624;2023-07-13T00:56:51;14.30;;;6.22;;
57822;SDS011;43650;48.064;20.624;2023-07-13T00:57:52;11.55;;;5.95;;
57822;SDS011;43650;48.064;20.624;2023-07-13T00:58:52;16.33;;;6.77;;
57822;SDS011;43650;48.064;20.624;2023-07-13T00:59:54;11.57;;;6.05;;
57822;SDS011;43650;48.064;20.624;2023-07-13T01:00:59;13.70;;;6.20;;
57822;SDS011;43650;48.064;20.624;2023-07-13T01:01:59;10.57;;;6.37;;
57822;SDS011;43650;48.064;20.624;2023-07-13T01:03:00;11.23;;;6.12;;
57822;SDS011;43650;48.064;20.624;2023-07-13T01:04:04;10.88;;;5.47;;
57822;SDS011;43650;48.064;20.624;2023-07-13T01:05:15;10.80;;;6.40;;
57822;SDS011;43650;48.064;20.624;2023-07-13T01:06:17;8.00;;;5.43;;
57822;SDS011;43650;48.064;20.624;2023-07-13T01:07:18;9.68;;;5.87;;
57822;SDS011;43650;48.064;20.624;2023-07-13T01:08:19;10.77;;;6.03;;
57822;SDS011;43650;48.064;20.624;2023-07-13T01:09:21;10.18;;;6.07;;
57822;SDS011;43650;48.064;20.624;2023-07-13T01:10:21;10.70;;;6.32;;
57822;SDS011;43650;48.064;20.624;2023-07-13T01:11:22;9.60;;;6.37;;
57822;SDS011;43650;48.064;20.624;2023-07-13T01:12:22;16.27;;;7.27;;
57822;SDS011;43650;48.064;20.624;2023-07-13T01:13:23;8.07;;;6.03;;
57822;SDS011;43650;48.064;20.624;2023-07-13T01:14:24;11.77;;;6.37;;
57822;SDS011;43650;48.064;20.624;2023-07-13T01:16:39;10.77;;;6.45;;
57822;SDS011;43650;48.064;20.624;2023-07-13T01:17:40;13.27;;;6.68;;
57822;SDS011;43650;48.064;20.624;2023-07-13T01:18:41;8.67;;;6.00;;
57822;SDS011;43650;48.064;20.624;2023-07-13T01:19:42;8.73;;;6.07;;
57822;SDS011;43650;48.064;20.624;2023-07-13T01:21:53;10.38;;;6.93;;
57822;SDS011;43650;48.064;20.624;2023-07-13T01:22:53;8.00;;;6.70;;
57822;SDS011;43650;48.064;20.624;2023-07-13T01:23:53;9.70;;;6.20;;
57822;SDS011;43650;48.064;20.624;2023-07-13T01:24:54;11.10;;;7.35;;
57822;SDS011;43650;48.064;20.624;2023-07-13T01:25:55;17.33;;;6.80;;
57822;SDS011;43650;48.064;20.624;2023-07-13T01:26:55;8.77;;;6.82;;
57822;SDS011;43650;48.064;20.624;2023-07-13T01:27:56;12.20;;;7.63;;
57822;SDS011;43650;48.064;20.624;2023-07-13T01:28:56;12.47;;;7.07;;
57822;SDS011;43650;48.064;20.624;2023-07-13T01:29:56;10.50;;;7.47;;
57822;SDS011;43650;48.064;20.624;2023-07-13T01:31:03;11.23;;;7.93;;
57822;SDS011;43650;48.064;20.624;2023-07-13T01:32:03;16.50;;;8.45;;
57822;SDS011;43650;48.064;20.624;2023-07-13T01:33:04;11.12;;;7.68;;
57822;SDS011;43650;48.064;20.624;2023-07-13T01:34:05;10.90;;;8.07;;
57822;SDS011;43650;48.064;20.624;2023-07-13T01:35:05;10.53;;;7.67;;
57822;SDS011;43650;48.064;20.624;2023-07-13T01:36:06;11.90;;;8.82;;
57822;SDS011;43650;48.064;20.624;2023-07-13T01:37:08;12.35;;;8.60;;
57822;SDS011;43650;48.064;20.624;2023-07-13T01:38:09;13.23;;;7.12;;
57822;SDS011;43650;48.064;20.624;2023-07-13T01:39:10;11.85;;;7.90;;
57822;SDS011;43650;48.064;20.624;2023-07-13T01:40:11;15.13;;;8.18;;
57822;SDS011;43650;48.064;20.624;2023-07-13T01:41:12;10.77;;;6.30;;
57822;SDS011;43650;48.064;20.624;2023-07-13T01:42:13;14.57;;;8.83;;
57822;SDS011;43650;48.064;20.624;2023-07-13T01:43:13;10.55;;;7.20;;
57822;SDS011;43650;48.064;20.624;2023-07-13T01:44:14;12.30;;;7.07;;
57822;SDS011;43650;48.064;20.624;2023-07-13T01:45:14;10.80;;;6.77;;
57822;SDS011;43650;48.064;20.624;2023-07-13T01:46:15;11.43;;;7.00;;
57822;SDS011;43650;48.064;20.624;2023-07-13T01:47:15;8.27;;;5.80;;
57822;SDS011;43650;48.064;20.624;2023-07-13T01:48:16;11.93;;;7.23;;
57822;SDS011;43650;48.064;20.624;2023-07-13T01:49:16;8.87;;;6.67;;
57822;SDS011;43650;48.064;20.624;2023-07-13T01:50:17;8.10;;;6.27;;
57822;SDS011;43650;48.064;20.624;2023-07-13T01:51:17;9.93;;;5.83;;
57822;SDS011;43650;48.064;20.624;2023-07-13T01:52:20;12.60;;;7.07;;
57822;SDS011;43650;48.064;20.624;2023-07-13T01:53:20;14.97;;;6.17;;
57822;SDS011;43650;48.064;20.624;2023-07-13T01:54:21;8.90;;;5.97;;
57822;SDS011;43650;48.064;20.624;2023-07-13T01:55:21;11.00;;;6.37;;
57822;SDS011;43650;48.064;20.624;2023-07-13T01:56:22;14.48;;;7.40;;
57822;SDS011;43650;48.064;20.624;2023-07-13T01:57:23;12.10;;;6.35;;
57822;SDS011;43650;48.064;20.624;2023-07-13T01:58:23;9.70;;;6.67;;
57822;SDS011;43650;48.064;20.624;2023-07-13T01:59:24;11.33;;;6.67;;
57822;SDS011;43650;48.064;20.624;2023-07-13T02:00:24;13.47;;;5.93;;
57822;SDS011;43650;48.064;20.624;2023-07-13T02:01:25;10.37;;;6.83;;
57822;SDS011;43650;48.064;20.624;2023-07-13T02:02:25;10.27;;;5.63;;
57822;SDS011;43650;48.064;20.624;2023-07-13T02:03:25;10.77;;;6.37;;
57822;SDS011;43650;48.064;20.624;2023-07-13T02:04:26;13.23;;;5.73;;
57822;SDS011;43650;48.064;20.624;2023-07-13T02:05:26;9.97;;;6.80;;
57822;SDS011;43650;48.064;20.624;2023-07-13T02:06:26;10.53;;;6.27;;
57822;SDS011;43650;48.064;20.624;2023-07-13T02:07:27;13.30;;;6.53;;
57822;SDS011;43650;48.064;20.624;2023-07-13T02:08:27;10.77;;;5.80;;
57822;SDS011;43650;48.064;20.624;2023-07-13T02:09:28;9.17;;;6.30;;
57822;SDS011;43650;48.064;20.624;2023-07-13T02:10:28;11.50;;;6.37;;
57822;SDS011;43650;48.064;20.624;2023-07-13T02:11:28;8.43;;;5.97;;
57822;SDS011;43650;48.064;20.624;2023-07-13T02:12:32;13.15;;;7.50;;
57822;SDS011;43650;48.064;20.624;2023-07-13T02:13:33;10.98;;;7.45;;
57822;SDS011;43650;48.064;20.624;2023-07-13T02:14:34;9.18;;;6.00;;
57822;SDS011;43650;48.064;20.624;2023-07-13T02:15:37;11.40;;;5.93;;
57822;SDS011;43650;48.064;20.624;2023-07-13T02:16:38;8.32;;;5.93;;
57822;SDS011;43650;48.064;20.624;2023-07-13T02:17:39;11.23;;;6.27;;
57822;SDS011;43650;48.064;20.624;2023-07-13T02:18:39;7.50;;;5.90;;
57822;SDS011;43650;48.064;20.624;2023-07-13T02:19:39;9.13;;;5.30;;
57822;SDS011;43650;48.064;20.624;2023-07-13T02:20:40;8.23;;;5.70;;
57822;SDS011;43650;48.064;20.624;2023-07-13T02:21:40;12.10;;;6.60;;
57822;SDS011;43650;48.064;20.624;2023-07-13T02:22:41;7.93;;;5.80;;
57822;SDS011;43650;48.064;20.624;2023-07-13T02:23:41;7.77;;;5.40;;
57822;SDS011;43650;48.064;20.624;2023-07-13T02:24:41;8.20;;;5.00;;
57822;SDS011;43650;48.064;20.624;2023-07-13T02:25:42;11.03;;;6.00;;
57822;SDS011;43650;48.064;20.624;2023-07-13T02:26:43;8.10;;;5.27;;
57822;SDS011;43650;48.064;20.624;2023-07-13T02:27:44;10.35;;;5.12;;
57822;SDS011;43650;48.064;20.624;2023-07-13T02:28:44;8.87;;;4.73;;
57822;SDS011;43650;48.064;20.624;2023-07-13T02:29:44;11.13;;;4.50;;
57822;SDS011;43650;48.064;20.624;2023-07-13T02:30:45;5.45;;;3.65;;
57822;SDS011;43650;48.064;20.624;2023-07-13T02:31:45;6.87;;;4.30;;
57822;SDS011;43650;48.064;20.624;2023-07-13T02:32:46;7.27;;;4.83;;
57822;SDS011;43650;48.064;20.624;2023-07-13T02:33:46;7.63;;;5.67;;
57822;SDS011;43650;48.064;20.624;2023-07-13T02:34:47;8.37;;;4.90;;
57822;SDS011;43650;48.064;20.624;2023-07-13T02:35:47;8.63;;;5.13;;
57822;SDS011;43650;48.064;20.624;2023-07-13T02:36:48;9.48;;;5.57;;
57822;SDS011;43650;48.064;20.624;2023-07-13T02:37:48;8.00;;;5.00;;
57822;SDS011;43650;48.064;20.624;2023-07-13T02:38:49;6.90;;;5.47;;
57822;SDS011;43650;48.064;20.624;2023-07-13T02:39:50;8.80;;;4.93;;
57822;SDS011;43650;48.064;20.624;2023-07-13T02:40:50;7.40;;;5.10;;
57822;SDS011;43650;48.064;20.624;2023-07-13T02:41:51;9.05;;;5.97;;
57822;SDS011;43650;48.064;20.624;2023-07-13T02:42:51;6.57;;;4.97;;
57822;SDS011;43650;48.064;20.624;2023-07-13T02:43:52;7.07;;;4.90;;
57822;SDS011;43650;48.064;20.624;2023-07-13T02:44:52;11.45;;;5.03;;
57822;SDS011;43650;48.064;20.624;2023-07-13T02:45:53;8.07;;;5.00;;
57822;SDS011;43650;48.064;20.624;2023-07-13T02:46:53;11.13;;;4.77;;
57822;SDS011;43650;48.064;20.624;2023-07-13T02:47:54;7.62;;;5.18;;
57822;SDS011;43650;48.064;20.624;2023-07-13T02:48:54;5.22;;;4.25;;
57822;SDS011;43650;48.064;20.624;2023-07-13T02:49:55;6.23;;;4.97;;
57822;SDS011;43650;48.064;20.624;2023-07-13T02:50:55;12.63;;;6.07;;
57822;SDS011;43650;48.064;20.624;2023-07-13T02:51:56;7.30;;;4.77;;
57822;SDS011;43650;48.064;20.624;2023-07-13T02:52:56;9.43;;;4.83;;
57822;SDS011;43650;48.064;20.624;2023-07-13T02:53:56;11.37;;;3.73;;
57822;SDS011;43650;48.064;20.624;2023-07-13T02:54:57;8.67;;;4.83;;
57822;SDS011;43650;48.064;20.624;2023-07-13T02:55:57;9.70;;;4.80;;
57822;SDS011;43650;48.064;20.624;2023-07-13T02:56:58;4.87;;;3.90;;
57822;SDS011;43650;48.064;20.624;2023-07-13T02:57:58;6.60;;;4.50;;
57822;SDS011;43650;48.064;20.624;2023-07-13T02:58:58;10.43;;;5.00;;
57822;SDS011;43650;48.064;20.624;2023-07-13T02:59:59;10.17;;;4.47;;
57822;SDS011;43650;48.064;20.624;2023-07-13T03:01:05;8.98;;;4.12;;
57822;SDS011;43650;48.064;20.624;2023-07-13T03:02:07;6.37;;;4.55;;
57822;SDS011;43650;48.064;20.624;2023-07-13T03:03:08;7.35;;;4.60;;
57822;SDS011;43650;48.064;20.624;2023-07-13T03:04:08;4.40;;;3.67;;
57822;SDS011;43650;48.064;20.624;2023-07-13T03:05:09;6.47;;;4.03;;
57822;SDS011;43650;48.064;20.624;2023-07-13T03:06:13;7.50;;;4.43;;
57822;SDS011;43650;48.064;20.624;2023-07-13T03:08:15;5.85;;;4.25;;
57822;SDS011;43650;48.064;20.624;2023-07-13T03:09:16;8.05;;;4.70;;
57822;SDS011;43650;48.064;20.624;2023-07-13T03:10:16;5.60;;;4.13;;
57822;SDS011;43650;48.064;20.624;2023-07-13T03:11:18;8.00;;;5.05;;
57822;SDS011;43650;48.064;20.624;2023-07-13T03:12:19;8.68;;;4.68;;
57822;SDS011;43650;48.064;20.624;2023-07-13T03:13:20;7.60;;;4.83;;
57822;SDS011;43650;48.064;20.624;2023-07-13T03:14:21;5.93;;;4.77;;
57822;SDS011;43650;48.064;20.624;2023-07-13T03:15:22;6.72;;;4.78;;
57822;SDS011;43650;48.064;20.624;2023-07-13T03:16:22;6.17;;;4.97;;
57822;SDS011;43650;48.064;20.624;2023-07-13T03:17:23;7.17;;;5.57;;
57822;SDS011;43650;48.064;20.624;2023-07-13T03:18:23;9.63;;;5.13;;
57822;SDS011;43650;48.064;20.624;2023-07-13T03:19:24;6.60;;;4.85;;
57822;SDS011;43650;48.064;20.624;2023-07-13T03:20:24;8.20;;;6.10;;
57822;SDS011;43650;48.064;20.624;2023-07-13T03:21:25;8.60;;;5.50;;
57822;SDS011;43650;48.064;20.624;2023-07-13T03:22:25;5.80;;;4.70;;
57822;SDS011;43650;48.064;20.624;2023-07-13T03:23:26;6.73;;;4.63;;
57822;SDS011;43650;48.064;20.624;2023-07-13T03:24:26;6.95;;;5.20;;
57822;SDS011;43650;48.064;20.624;2023-07-13T03:25:26;11.30;;;5.40;;
57822;SDS011;43650;48.064;20.624;2023-07-13T03:26:27;8.23;;;4.80;;
57822;SDS011;43650;48.064;20.624;2023-07-13T03:27:27;7.67;;;5.13;;
57822;SDS011;43650;48.064;20.624;2023-07-13T03:28:28;6.70;;;4.97;;
57822;SDS011;43650;48.064;20.624;2023-07-13T03:29:28;6.33;;;5.00;;
57822;SDS011;43650;48.064;20.624;2023-07-13T03:30:28;5.57;;;4.83;;
57822;SDS011;43650;48.064;20.624;2023-07-13T03:31:29;8.30;;;5.10;;
57822;SDS011;43650;48.064;20.624;2023-07-13T03:32:34;7.47;;;5.22;;
57822;SDS011;43650;48.064;20.624;2023-07-13T03:33:34;7.17;;;4.87;;
57822;SDS011;43650;48.064;20.624;2023-07-13T03:34:35;6.28;;;4.97;;
57822;SDS011;43650;48.064;20.624;2023-07-13T03:35:35;8.17;;;5.00;;
57822;SDS011;43650;48.064;20.624;2023-07-13T03:36:40;9.23;;;5.50;;
57822;SDS011;43650;48.064;20.624;2023-07-13T03:37:40;7.57;;;4.53;;
57822;SDS011;43650;48.064;20.624;2023-07-13T03:38:42;7.62;;;5.00;;
57822;SDS011;43650;48.064;20.624;2023-07-13T03:39:42;9.60;;;4.70;;
57822;SDS011;43650;48.064;20.624;2023-07-13T03:40:43;8.00;;;4.37;;
57822;SDS011;43650;48.064;20.624;2023-07-13T03:41:43;6.00;;;4.40;;
57822;SDS011;43650;48.064;20.624;2023-07-13T03:42:44;6.23;;;4.20;;
57822;SDS011;43650;48.064;20.624;2023-07-13T03:43:44;6.93;;;4.43;;
57822;SDS011;43650;48.064;20.624;2023-07-13T03:44:45;7.97;;;4.97;;
57822;SDS011;43650;48.064;20.624;2023-07-13T03:45:50;6.03;;;4.32;;
57822;SDS011;43650;48.064;20.624;2023-07-13T03:46:51;4.93;;;4.10;;
57822;SDS011;43650;48.064;20.624;2023-07-13T03:47:51;9.63;;;5.13;;
57822;SDS011;43650;48.064;20.624;2023-07-13T03:48:51;6.03;;;3.87;;
57822;SDS011;43650;48.064;20.624;2023-07-13T03:49:52;7.80;;;4.57;;
57822;SDS011;43650;48.064;20.624;2023-07-13T03:50:53;9.18;;;4.30;;
57822;SDS011;43650;48.064;20.624;2023-07-13T03:51:53;8.27;;;4.60;;
57822;SDS011;43650;48.064;20.624;2023-07-13T03:52:54;7.47;;;4.30;;
57822;SDS011;43650;48.064;20.624;2023-07-13T03:53:56;5.82;;;4.47;;
57822;SDS011;43650;48.064;20.624;2023-07-13T03:54:56;7.20;;;4.55;;
57822;SDS011;43650;48.064;20.624;2023-07-13T03:55:57;7.25;;;4.57;;
57822;SDS011;43650;48.064;20.624;2023-07-13T03:56:57;5.90;;;4.07;;
57822;SDS011;43650;48.064;20.624;2023-07-13T03:58:00;6.73;;;4.83;;
57822;SDS011;43650;48.064;20.624;2023-07-13T03:59:20;9.48;;;4.85;;
57822;SDS011;43650;48.064;20.624;2023-07-13T04:00:20;6.77;;;4.30;;
57822;SDS011;43650;48.064;20.624;2023-07-13T04:01:21;6.37;;;4.23;;
57822;SDS011;43650;48.064;20.624;2023-07-13T04:02:23;6.97;;;3.87;;
57822;SDS011;43650;48.064;20.624;2023-07-13T04:03:23;6.40;;;4.47;;
57822;SDS011;43650;48.064;20.624;2023-07-13T04:04:24;5.80;;;4.60;;
57822;SDS011;43650;48.064;20.624;2023-07-13T04:05:24;5.83;;;4.83;;
57822;SDS011;43650;48.064;20.624;2023-07-13T04:06:29;5.40;;;3.77;;
57822;SDS011;43650;48.064;20.624;2023-07-13T04:07:29;4.97;;;3.87;;
57822;SDS011;43650;48.064;20.624;2023-07-13T04:08:31;5.97;;;3.80;;
57822;SDS011;43650;48.064;20.624;2023-07-13T04:09:33;7.78;;;4.72;;
57822;SDS011;43650;48.064;20.624;2023-07-13T04:10:34;7.28;;;4.40;;
57822;SDS011;43650;48.064;20.624;2023-07-13T04:11:34;5.93;;;3.93;;
57822;SDS011;43650;48.064;20.624;2023-07-13T04:12:36;5.72;;;4.30;;
57822;SDS011;43650;48.064;20.624;2023-07-13T04:13:36;8.27;;;4.87;;
57822;SDS011;43650;48.064;20.624;2023-07-13T04:14:37;6.23;;;4.50;;
57822;SDS011;43650;48.064;20.624;2023-07-13T04:15:37;7.07;;;4.77;;
57822;SDS011;43650;48.064;20.624;2023-07-13T04:17:39;6.00;;;4.30;;
57822;SDS011;43650;48.064;20.624;2023-07-13T04:18:39;7.67;;;4.47;;
57822;SDS011;43650;48.064;20.624;2023-07-13T04:19:41;8.70;;;4.93;;
57822;SDS011;43650;48.064;20.624;2023-07-13T04:20:41;8.00;;;4.67;;
57822;SDS011;43650;48.064;20.624;2023-07-13T04:21:42;13.52;;;5.32;;
57822;SDS011;43650;48.064;20.624;2023-07-13T04:22:42;8.57;;;4.60;;
57822;SDS011;43650;48.064;20.624;2023-07-13T04:23:43;12.10;;;4.80;;
57822;SDS011;43650;48.064;20.624;2023-07-13T04:24:43;6.87;;;4.97;;
57822;SDS011;43650;48.064;20.624;2023-07-13T04:25:47;6.27;;;4.60;;
57822;SDS011;43650;48.064;20.624;2023-07-13T04:26:49;7.43;;;5.22;;
57822;SDS011;43650;48.064;20.624;2023-07-13T04:27:49;8.23;;;4.37;;
57822;SDS011;43650;48.064;20.624;2023-07-13T04:28:51;6.03;;;4.60;;
57822;SDS011;43650;48.064;20.624;2023-07-13T04:29:52;8.80;;;6.22;;
57822;SDS011;43650;48.064;20.624;2023-07-13T04:30:52;12.98;;;5.50;;
57822;SDS011;43650;48.064;20.624;2023-07-13T04:31:53;6.32;;;4.93;;
57822;SDS011;43650;48.064;20.624;2023-07-13T04:32:54;8.50;;;5.37;;
57822;SDS011;43650;48.064;20.624;2023-07-13T04:33:54;9.30;;;5.13;;
57822;SDS011;43650;48.064;20.624;2023-07-13T04:34:54;8.70;;;5.70;;
57822;SDS011;43650;48.064;20.624;2023-07-13T04:35:55;8.43;;;5.68;;
57822;SDS011;43650;48.064;20.624;2023-07-13T04:37:57;6.97;;;5.25;;
57822;SDS011;43650;48.064;20.624;2023-07-13T04:38:57;11.40;;;4.90;;
57822;SDS011;43650;48.064;20.624;2023-07-13T04:39:58;11.32;;;5.43;;
57822;SDS011;43650;48.064;20.624;2023-07-13T04:40:59;8.07;;;4.90;;
57822;SDS011;43650;48.064;20.624;2023-07-13T04:42:02;6.40;;;4.60;;
57822;SDS011;43650;48.064;20.624;2023-07-13T04:43:03;7.18;;;5.12;;
57822;SDS011;43650;48.064;20.624;2023-07-13T04:44:03;8.23;;;5.67;;
57822;SDS011;43650;48.064;20.624;2023-07-13T04:45:05;9.07;;;5.17;;
57822;SDS011;43650;48.064;20.624;2023-07-13T04:46:07;7.95;;;5.43;;
57822;SDS011;43650;48.064;20.624;2023-07-13T04:47:09;8.80;;;5.97;;
57822;SDS011;43650;48.064;20.624;2023-07-13T04:48:10;7.37;;;6.20;;
57822;SDS011;43650;48.064;20.624;2023-07-13T04:49:10;8.07;;;5.73;;
57822;SDS011;43650;48.064;20.624;2023-07-13T04:50:12;8.50;;;5.27;;
57822;SDS011;43650;48.064;20.624;2023-07-13T04:51:15;9.50;;;5.47;;
57822;SDS011;43650;48.064;20.624;2023-07-13T04:52:15;6.23;;;4.53;;
57822;SDS011;43650;48.064;20.624;2023-07-13T04:53:15;9.70;;;4.77;;
57822;SDS011;43650;48.064;20.624;2023-07-13T04:54:16;7.63;;;4.67;;
57822;SDS011;43650;48.064;20.624;2023-07-13T04:55:17;7.50;;;5.25;;
57822;SDS011;43650;48.064;20.624;2023-07-13T04:57:19;6.57;;;4.62;;
57822;SDS011;43650;48.064;20.624;2023-07-13T04:58:20;9.60;;;5.07;;
57822;SDS011;43650;48.064;20.624;2023-07-13T04:59:21;6.12;;;4.57;;
57822;SDS011;43650;48.064;20.624;2023-07-13T05:00:22;8.60;;;5.28;;
57822;SDS011;43650;48.064;20.624;2023-07-13T05:01:22;6.87;;;4.90;;
57822;SDS011;43650;48.064;20.624;2023-07-13T05:02:22;6.23;;;4.60;;
57822;SDS011;43650;48.064;20.624;2023-07-13T05:03:23;6.37;;;4.70;;
57822;SDS011;43650;48.064;20.624;2023-07-13T05:04:23;5.80;;;4.80;;
57822;SDS011;43650;48.064;20.624;2023-07-13T05:05:24;6.32;;;4.15;;
57822;SDS011;43650;48.064;20.624;2023-07-13T05:06:25;6.68;;;3.72;;
57822;SDS011;43650;48.064;20.624;2023-07-13T05:07:26;5.22;;;3.90;;
57822;SDS011;43650;48.064;20.624;2023-07-13T05:08:26;11.73;;;5.47;;
57822;SDS011;43650;48.064;20.624;2023-07-13T05:09:27;5.28;;;4.22;;
57822;SDS011;43650;48.064;20.624;2023-07-13T05:10:27;5.60;;;4.23;;
57822;SDS011;43650;48.064;20.624;2023-07-13T05:11:28;5.32;;;4.00;;
57822;SDS011;43650;48.064;20.624;2023-07-13T05:12:29;5.22;;;4.37;;
57822;SDS011;43650;48.064;20.624;2023-07-13T05:13:30;6.62;;;4.55;;
57822;SDS011;43650;48.064;20.624;2023-07-13T05:14:30;5.65;;;4.07;;
57822;SDS011;43650;48.064;20.624;2023-07-13T05:15:32;7.20;;;4.77;;
57822;SDS011;43650;48.064;20.624;2023-07-13T05:16:33;6.85;;;4.75;;
57822;SDS011;43650;48.064;20.624;2023-07-13T05:17:33;5.30;;;4.20;;
57822;SDS011;43650;48.064;20.624;2023-07-13T05:18:34;5.55;;;4.32;;
57822;SDS011;43650;48.064;20.624;2023-07-13T05:19:35;8.75;;;4.80;;
57822;SDS011;43650;48.064;20.624;2023-07-13T05:20:35;5.30;;;4.00;;
57822;SDS011;43650;48.064;20.624;2023-07-13T05:21:36;5.78;;;4.62;;
57822;SDS011;43650;48.064;20.624;2023-07-13T05:22:36;5.70;;;4.20;;
57822;SDS011;43650;48.064;20.624;2023-07-13T05:23:37;5.78;;;3.83;;
57822;SDS011;43650;48.064;20.624;2023-07-13T05:24:38;6.45;;;4.20;;
57822;SDS011;43650;48.064;20.624;2023-07-13T05:25:38;5.23;;;4.30;;
57822;SDS011;43650;48.064;20.624;2023-07-13T05:26:39;6.47;;;4.78;;
57822;SDS011;43650;48.064;20.624;2023-07-13T05:27:39;6.80;;;4.37;;
57822;SDS011;43650;48.064;20.624;2023-07-13T05:28:39;6.68;;;4.95;;
57822;SDS011;43650;48.064;20.624;2023-07-13T05:29:40;7.20;;;4.87;;
57822;SDS011;43650;48.064;20.624;2023-07-13T05:30:44;6.10;;;4.97;;
57822;SDS011;43650;48.064;20.624;2023-07-13T05:31:46;8.75;;;5.07;;
57822;SDS011;43650;48.064;20.624;2023-07-13T05:32:47;5.85;;;4.70;;
57822;SDS011;43650;48.064;20.624;2023-07-13T05:33:47;7.20;;;4.53;;
57822;SDS011;43650;48.064;20.624;2023-07-13T05:34:47;9.00;;;4.63;;
57822;SDS011;43650;48.064;20.624;2023-07-13T05:35:48;9.47;;;5.50;;
57822;SDS011;43650;48.064;20.624;2023-07-13T05:36:48;7.33;;;4.80;;
57822;SDS011;43650;48.064;20.624;2023-07-13T05:37:49;7.12;;;5.25;;
57822;SDS011;43650;48.064;20.624;2023-07-13T05:38:49;7.17;;;5.70;;
57822;SDS011;43650;48.064;20.624;2023-07-13T05:39:50;7.47;;;5.27;;
57822;SDS011;43650;48.064;20.624;2023-07-13T05:40:50;9.07;;;5.00;;
57822;SDS011;43650;48.064;20.624;2023-07-13T05:41:51;9.60;;;5.68;;
57822;SDS011;43650;48.064;20.624;2023-07-13T05:42:51;7.13;;;5.00;;
57822;SDS011;43650;48.064;20.624;2023-07-13T05:43:51;6.30;;;4.90;;
57822;SDS011;43650;48.064;20.624;2023-07-13T05:44:52;7.07;;;5.50;;
57822;SDS011;43650;48.064;20.624;2023-07-13T05:45:53;7.13;;;5.50;;
57822;SDS011;43650;48.064;20.624;2023-07-13T05:46:54;9.52;;;5.80;;
57822;SDS011;43650;48.064;20.624;2023-07-13T05:47:56;7.18;;;5.45;;
57822;SDS011;43650;48.064;20.624;2023-07-13T05:48:57;9.63;;;5.30;;
57822;SDS011;43650;48.064;20.624;2023-07-13T05:49:57;14.17;;;5.77;;
57822;SDS011;43650;48.064;20.624;2023-07-13T05:50:57;7.00;;;5.67;;
57822;SDS011;43650;48.064;20.624;2023-07-13T05:51:58;6.90;;;5.40;;
57822;SDS011;43650;48.064;20.624;2023-07-13T05:52:58;6.50;;;5.03;;
57822;SDS011;43650;48.064;20.624;2023-07-13T05:53:59;7.67;;;6.13;;
57822;SDS011;43650;48.064;20.624;2023-07-13T05:54:59;8.05;;;6.15;;
57822;SDS011;43650;48.064;20.624;2023-07-13T05:56:00;9.70;;;5.73;;
57822;SDS011;43650;48.064;20.624;2023-07-13T05:57:00;6.00;;;5.10;;
57822;SDS011;43650;48.064;20.624;2023-07-13T05:58:00;9.47;;;5.60;;
57822;SDS011;43650;48.064;20.624;2023-07-13T05:59:01;10.32;;;6.15;;
57822;SDS011;43650;48.064;20.624;2023-07-13T06:00:02;8.50;;;5.90;;
57822;SDS011;43650;48.064;20.624;2023-07-13T06:01:06;10.63;;;5.57;;
57822;SDS011;43650;48.064;20.624;2023-07-13T06:02:10;12.20;;;6.85;;
57822;SDS011;43650;48.064;20.624;2023-07-13T06:03:10;11.32;;;5.87;;
57822;SDS011;43650;48.064;20.624;2023-07-13T06:04:11;7.87;;;6.23;;
57822;SDS011;43650;48.064;20.624;2023-07-13T06:05:12;10.68;;;6.82;;
57822;SDS011;43650;48.064;20.624;2023-07-13T06:06:12;10.27;;;5.65;;
57822;SDS011;43650;48.064;20.624;2023-07-13T06:07:13;7.82;;;5.53;;
57822;SDS011;43650;48.064;20.624;2023-07-13T06:08:14;10.52;;;6.00;;
57822;SDS011;43650;48.064;20.624;2023-07-13T06:09:14;7.27;;;5.57;;
57822;SDS011;43650;48.064;20.624;2023-07-13T06:10:15;8.13;;;5.27;;